Time;durP1;ratioP1;P1;durP2;ratioP2;P2;SDS_P1;SDS_P2;PMS_P1;PMS_P2;Temp;Humidity;BMP_temperature;BMP_pressure;BME280_temperature;BME280_humidity;BME280_pressure;Samples;Min_cycle;Max_cycle;Signal;HPM_P1;HPM_P2
2022/04/20 00:01:48;;;;;;;5.25;1.70;;;11.40;66.10;;;;;;5034970;28;20022;-77
2022/04/20 00:04:14;;;;;;;5.28;2.00;;;11.40;66.10;;;;;;5015372;28;20089;-77
2022/04/20 00:06:40;;;;;;;4.32;2.03;;;11.40;66.40;;;;;;5015560;28;20069;-77
2022/04/20 00:09:06;;;;;;;3.22;1.55;;;11.40;66.60;;;;;;5015293;28;20500;-77
2022/04/20 00:11:32;;;;;;;2.47;1.98;;;11.40;66.60;;;;;;5015488;28;20109;-77
2022/04/20 00:13:57;;;;;;;5.32;2.47;;;11.40;66.70;;;;;;5015404;28;20124;-77
2022/04/20 00:16:23;;;;;;;2.88;1.67;;;11.30;66.70;;;;;;5015268;28;20111;-77
2022/04/20 00:18:50;;;;;;;3.78;1.65;;;11.30;66.80;;;;;;5015268;28;20101;-77
2022/04/20 00:21:16;;;;;;;3.78;2.10;;;11.30;66.60;;;;;;5015110;28;20041;-77
2022/04/20 00:23:41;;;;;;;3.10;1.75;;;11.30;66.70;;;;;;5014923;28;20026;-77
2022/04/20 00:26:07;;;;;;;3.83;1.60;;;11.30;66.80;;;;;;5018694;28;20038;-77
2022/04/20 00:28:32;;;;;;;3.95;1.83;;;11.30;66.70;;;;;;5019218;28;20029;-77
2022/04/20 00:30:58;;;;;;;8.15;2.03;;;11.30;67.10;;;;;;5019206;28;20053;-77
2022/04/20 00:33:24;;;;;;;4.03;2.30;;;11.30;67.30;;;;;;5019301;28;20022;-77
2022/04/20 00:35:50;;;;;;;5.97;1.98;;;11.20;67.40;;;;;;5019264;28;20025;-77
2022/04/20 00:38:18;;;;;;;4.47;2.25;;;11.20;67.10;;;;;;5019119;28;20022;-77
2022/04/20 00:40:47;;;;;;;6.45;2.47;;;11.20;67.10;;;;;;5017840;28;20057;-77
2022/04/20 00:43:13;;;;;;;2.60;1.80;;;11.20;67.20;;;;;;5018334;28;20413;-77
2022/04/20 00:45:42;;;;;;;9.23;2.30;;;11.20;67.50;;;;;;5019185;28;20030;-77
2022/04/20 00:48:10;;;;;;;5.45;2.00;;;11.10;67.90;;;;;;5027410;28;20033;-77
2022/04/20 00:50:37;;;;;;;2.88;1.42;;;11.00;68.00;;;;;;5018956;28;20072;-77
2022/04/20 00:53:03;;;;;;;4.78;2.20;;;11.00;68.00;;;;;;5018802;28;20045;-77
2022/04/20 00:55:29;;;;;;;6.35;2.17;;;11.00;68.00;;;;;;5018852;28;20037;-76
2022/04/20 00:57:54;;;;;;;3.72;2.10;;;10.90;68.10;;;;;;5018966;28;20032;-77
2022/04/20 01:00:20;;;;;;;3.50;2.05;;;10.90;68.40;;;;;;5027944;28;20030;-77
2022/04/20 01:02:46;;;;;;;3.80;2.15;;;10.90;68.30;;;;;;5018311;28;20025;-77
2022/04/20 01:05:13;;;;;;;6.22;2.10;;;10.80;68.50;;;;;;5018695;28;20042;-77
2022/04/20 01:07:40;;;;;;;6.20;2.45;;;10.80;68.80;;;;;;5018525;28;20050;-77
2022/04/20 01:10:06;;;;;;;3.85;2.30;;;10.70;68.70;;;;;;5018505;28;20037;-77
2022/04/20 01:12:35;;;;;;;3.70;1.98;;;10.80;68.70;;;;;;5018368;28;20018;-76
2022/04/20 01:15:02;;;;;;;4.13;2.10;;;10.70;68.90;;;;;;5018359;28;20034;-77
2022/04/20 01:17:27;;;;;;;4.75;1.98;;;10.60;69.80;;;;;;5018566;28;20400;-77
2022/04/20 01:19:54;;;;;;;4.95;2.38;;;10.50;69.80;;;;;;5017859;28;20037;-77
2022/04/20 01:22:20;;;;;;;3.67;2.00;;;10.50;69.50;;;;;;5018175;28;20061;-76
2022/04/20 01:24:45;;;;;;;2.10;1.60;;;10.50;69.70;;;;;;5024226;28;20029;-77
2022/04/20 01:27:11;;;;;;;4.72;2.45;;;10.40;70.20;;;;;;5038001;28;20032;-77
2022/04/20 01:29:37;;;;;;;8.68;2.58;;;10.20;71.10;;;;;;5020909;28;20084;-76
2022/04/20 01:32:03;;;;;;;6.40;2.13;;;10.20;71.40;;;;;;5018251;28;20217;-77
2022/04/20 01:34:29;;;;;;;6.13;2.10;;;10.20;71.20;;;;;;5017924;28;20484;-77
2022/04/20 01:36:55;;;;;;;12.07;2.20;;;10.20;71.00;;;;;;5016714;28;20014;-77
2022/04/20 01:39:20;;;;;;;6.70;2.58;;;10.10;71.50;;;;;;5017809;28;20072;-77
2022/04/20 01:41:46;;;;;;;4.72;2.25;;;10.00;72.10;;;;;;5016778;28;20033;-77
2022/04/20 01:44:12;;;;;;;3.22;1.65;;;10.10;71.30;;;;;;5017802;28;20037;-77
2022/04/20 01:46:37;;;;;;;4.88;2.92;;;10.10;71.40;;;;;;5016490;28;20105;-77
2022/04/20 01:49:03;;;;;;;2.85;1.92;;;10.10;71.40;;;;;;5037553;28;20029;-76
2022/04/20 01:51:55;;;;;;;4.45;1.98;;;10.20;71.50;;;;;;5027291;28;20053;-77
2022/04/20 01:54:21;;;;;;;3.80;2.40;;;10.10;71.50;;;;;;5016512;28;20022;-77
2022/04/20 01:56:51;;;;;;;7.07;2.40;;;10.20;71.00;;;;;;5032400;28;20032;-77
2022/04/20 01:59:17;;;;;;;7.15;2.65;;;10.30;70.80;;;;;;5021783;28;20033;-76
2022/04/20 02:04:27;;;;;;;2.45;1.85;;;10.30;70.60;;;;;;5017641;28;20121;-77
2022/04/20 02:06:53;;;;;;;5.03;2.85;;;10.40;70.40;;;;;;5017610;28;20053;-77
2022/04/20 02:09:21;;;;;;;7.68;2.28;;;10.40;70.40;;;;;;5017425;28;20515;-77
2022/04/20 02:11:47;;;;;;;3.65;2.55;;;10.40;70.40;;;;;;5017715;28;20477;-77
2022/04/20 02:14:13;;;;;;;8.18;2.65;;;10.30;70.50;;;;;;5016799;28;20092;-76
2022/04/20 02:16:38;;;;;;;4.35;2.25;;;10.30;71.00;;;;;;5027796;28;20022;-77
2022/04/20 02:19:04;;;;;;;7.75;2.95;;;10.30;70.90;;;;;;5017230;28;20065;-77
2022/04/20 02:21:30;;;;;;;4.22;2.15;;;10.30;70.60;;;;;;5017123;28;20099;-77
2022/04/20 02:23:56;;;;;;;6.93;2.63;;;10.40;70.40;;;;;;5016964;28;20026;-76
2022/04/20 02:26:22;;;;;;;5.35;3.00;;;10.40;70.90;;;;;;5015744;28;20507;-77
2022/04/20 02:28:47;;;;;;;7.15;2.45;;;10.40;70.40;;;;;;5016865;28;20629;-77
2022/04/20 02:31:14;;;;;;;5.93;2.67;;;10.40;70.50;;;;;;5017099;28;20246;-77
2022/04/20 02:33:40;;;;;;;4.70;2.60;;;10.40;70.20;;;;;;5016238;28;20053;-77
2022/04/20 02:36:06;;;;;;;4.72;2.40;;;10.40;70.30;;;;;;5016882;28;20037;-77
2022/04/20 02:38:33;;;;;;;4.93;2.13;;;10.40;70.20;;;;;;5016906;28;20026;-76
2022/04/20 02:40:59;;;;;;;4.63;2.03;;;10.30;70.40;;;;;;5016786;28;20036;-77
2022/04/20 02:43:25;;;;;;;4.47;2.50;;;10.30;70.50;;;;;;5016812;28;20463;-76
2022/04/20 02:45:50;;;;;;;5.63;2.72;;;10.30;70.70;;;;;;5016697;28;20488;-77
2022/04/20 02:48:16;;;;;;;4.90;2.22;;;10.20;70.90;;;;;;5028824;28;20029;-77
2022/04/20 02:50:43;;;;;;;5.90;2.45;;;10.10;71.40;;;;;;5036450;28;20029;-77
2022/04/20 02:53:08;;;;;;;8.63;2.85;;;10.00;72.40;;;;;;5029742;28;20018;-76
2022/04/20 02:55:34;;;;;;;5.38;2.88;;;9.90;72.40;;;;;;5031090;28;20798;-76
2022/04/20 02:58:00;;;;;;;7.43;2.88;;;9.90;72.80;;;;;;5029281;28;20026;-76
2022/04/20 03:00:25;;;;;;;9.50;2.88;;;9.90;72.70;;;;;;5029833;28;20057;-75
2022/04/20 03:02:51;;;;;;;4.65;2.63;;;9.90;72.60;;;;;;5030757;28;20030;-76
2022/04/20 03:05:17;;;;;;;8.75;3.60;;;9.90;72.80;;;;;;5016435;28;20382;-75
2022/04/20 03:07:42;;;;;;;6.88;2.30;;;9.90;72.70;;;;;;5016350;28;20571;-75
2022/04/20 03:10:09;;;;;;;4.55;2.75;;;9.90;72.70;;;;;;5015908;28;20108;-75
2022/04/20 03:12:35;;;;;;;9.15;2.80;;;9.90;72.80;;;;;;5015639;28;20041;-76
2022/04/20 03:15:01;;;;;;;3.70;2.20;;;9.90;72.90;;;;;;5016369;28;20025;-76
2022/04/20 03:17:26;;;;;;;8.25;3.30;;;9.90;72.60;;;;;;5015995;28;20088;-75
2022/04/20 03:19:52;;;;;;;3.58;2.25;;;9.90;72.60;;;;;;5016101;28;20034;-76
2022/04/20 03:22:18;;;;;;;6.55;2.75;;;9.90;73.20;;;;;;5016013;28;20038;-76
2022/04/20 03:24:44;;;;;;;7.43;3.17;;;9.80;73.50;;;;;;5015966;28;20844;-76
2022/04/20 03:27:10;;;;;;;5.68;3.08;;;9.90;72.90;;;;;;5015764;28;20628;-75
2022/04/20 03:29:36;;;;;;;6.13;3.10;;;10.00;72.70;;;;;;5015619;28;20108;-76
2022/04/20 03:32:12;;;;;;;6.82;3.38;;;10.00;72.60;;;;;;5015695;28;20081;-76
2022/04/20 03:34:41;;;;;;;8.18;3.40;;;10.00;72.40;;;;;;5014711;28;20022;-76
2022/04/20 03:37:08;;;;;;;4.95;3.10;;;10.10;72.10;;;;;;5016023;28;20029;-76
2022/04/20 03:39:34;;;;;;;5.47;3.08;;;10.10;72.10;;;;;;5030770;28;20033;-76
2022/04/20 03:42:00;;;;;;;5.00;2.97;;;10.20;71.50;;;;;;5015660;28;20034;-75
2022/04/20 03:44:26;;;;;;;8.68;2.45;;;10.20;71.90;;;;;;5030996;28;20129;-75
2022/04/20 03:46:53;;;;;;;7.18;3.35;;;10.10;72.40;;;;;;5017643;28;20492;-76
2022/04/20 03:49:18;;;;;;;9.07;3.10;;;10.00;72.60;;;;;;5034759;28;20021;-75
2022/04/20 03:51:47;;;;;;;6.82;3.00;;;9.90;73.00;;;;;;5035644;28;20476;-75
2022/04/20 03:54:14;;;;;;;8.27;2.95;;;10.00;72.80;;;;;;5030719;28;20021;-76
2022/04/20 03:59:24;;;;;;;8.57;3.65;;;9.90;73.10;;;;;;5020259;28;20846;-75
2022/04/20 04:01:51;;;;;;;4.88;2.88;;;9.90;73.50;;;;;;5018387;28;20044;-76
2022/04/20 04:04:18;;;;;;;7.30;3.10;;;9.90;73.40;;;;;;5015543;28;20026;-75
2022/04/20 04:06:43;;;;;;;4.80;2.45;;;9.70;74.80;;;;;;5015687;28;20025;-75
2022/04/20 04:09:09;;;;;;;6.07;3.25;;;9.70;74.50;;;;;;5014564;28;20133;-75
2022/04/20 04:11:35;;;;;;;4.60;2.70;;;9.80;74.80;;;;;;5030448;28;20057;-76
2022/04/20 04:14:01;;;;;;;6.97;3.85;;;9.80;74.50;;;;;;5015211;28;20104;-75
2022/04/20 04:16:27;;;;;;;5.88;3.47;;;9.70;74.60;;;;;;5015315;28;20105;-76
2022/04/20 04:18:53;;;;;;;6.03;3.30;;;9.70;75.00;;;;;;5015381;28;20066;-75
2022/04/20 04:21:20;;;;;;;6.50;3.38;;;9.70;74.50;;;;;;5015293;28;20080;-76
2022/04/20 04:23:46;;;;;;;4.95;3.63;;;9.60;75.60;;;;;;5015034;28;20029;-75
2022/04/20 04:26:12;;;;;;;7.22;3.97;;;9.50;76.40;;;;;;5014811;28;20029;-76
2022/04/20 04:28:37;;;;;;;5.53;3.78;;;9.50;76.40;;;;;;5015236;28;20045;-75
2022/04/20 04:31:03;;;;;;;8.75;4.47;;;9.40;76.70;;;;;;5015020;28;20030;-75
2022/04/20 04:33:29;;;;;;;7.88;4.50;;;9.50;76.70;;;;;;5015358;28;20508;-75
2022/04/20 04:35:54;;;;;;;13.73;5.90;;;9.40;77.00;;;;;;5015382;28;20808;-76
2022/04/20 04:38:20;;;;;;;12.32;4.50;;;9.30;77.40;;;;;;5034884;28;20112;-76
2022/04/20 04:40:45;;;;;;;10.38;4.25;;;9.30;77.60;;;;;;5034956;28;20033;-77
2022/04/20 04:43:13;;;;;;;11.48;4.72;;;9.30;77.70;;;;;;5020002;28;20037;-80
2022/04/20 04:48:40;;;;;;;10.40;4.90;;;9.30;78.00;;;;;;5029140;28;20118;-76
2022/04/20 04:51:07;;;;;;;7.53;4.05;;;9.20;78.30;;;;;;5018664;28;20026;-76
2022/04/20 04:53:33;;;;;;;7.47;3.75;;;9.30;78.10;;;;;;5014994;28;20064;-76
2022/04/20 04:55:59;;;;;;;5.75;3.50;;;9.30;77.90;;;;;;5015051;28;20481;-76
2022/04/20 04:58:25;;;;;;;5.65;3.53;;;9.40;77.50;;;;;;5014289;28;20029;-76
2022/04/20 05:00:50;;;;;;;6.72;3.97;;;9.40;77.00;;;;;;5030062;28;20072;-78
2022/04/20 05:03:17;;;;;;;8.85;4.50;;;9.30;77.40;;;;;;5032117;28;20035;-76
2022/04/20 05:05:46;;;;;;;8.90;4.78;;;9.40;77.00;;;;;;5025792;28;20060;-76
2022/04/20 05:08:12;;;;;;;7.20;4.00;;;9.40;77.40;;;;;;5033528;28;20138;-77
2022/04/20 05:10:38;;;;;;;7.45;4.63;;;9.50;77.20;;;;;;5031057;28;20272;-77
2022/04/20 05:13:04;;;;;;;7.28;4.03;;;9.50;76.90;;;;;;5037182;28;20934;-77
2022/04/20 05:15:30;;;;;;;7.43;3.63;;;9.50;77.50;;;;;;5037437;28;20152;-77
2022/04/20 05:17:56;;;;;;;9.35;4.47;;;9.60;77.10;;;;;;5023024;28;20065;-77
2022/04/20 05:20:21;;;;;;;11.43;4.45;;;9.60;77.20;;;;;;5026035;28;20070;-77
2022/04/20 05:22:48;;;;;;;9.45;4.07;;;9.60;77.50;;;;;;5036693;28;20048;-77
2022/04/20 05:25:14;;;;;;;9.23;4.45;;;9.70;77.10;;;;;;5034586;28;20037;-77
2022/04/20 05:27:40;;;;;;;7.05;3.63;;;9.70;77.20;;;;;;5018159;28;20026;-77
2022/04/20 05:30:08;;;;;;;7.22;4.05;;;9.70;76.80;;;;;;5018235;28;20037;-77
2022/04/20 05:32:33;;;;;;;6.72;4.40;;;9.70;77.40;;;;;;5017836;28;20080;-77
2022/04/20 05:34:59;;;;;;;11.23;4.35;;;9.60;77.70;;;;;;5017922;28;20457;-77
2022/04/20 05:42:53;;;;;;;9.55;3.72;;;9.60;78.30;;;;;;5017794;28;20036;-77
2022/04/20 05:45:19;;;;;;;7.95;4.43;;;9.70;77.90;;;;;;5025187;28;20109;-77
2022/04/20 05:47:46;;;;;;;8.13;4.20;;;9.80;77.60;;;;;;5027093;28;20029;-77
2022/04/20 05:50:11;;;;;;;5.90;3.42;;;9.70;77.80;;;;;;5022611;28;20034;-77
2022/04/20 05:52:37;;;;;;;10.73;3.60;;;9.60;79.00;;;;;;5025736;28;20026;-77
2022/04/20 05:55:04;;;;;;;8.02;4.13;;;9.60;78.60;;;;;;5035628;28;20079;-75
2022/04/20 05:57:30;;;;;;;6.68;4.63;;;9.70;78.80;;;;;;5033424;28;20025;-76
2022/04/20 05:59:56;;;;;;;9.32;5.07;;;9.90;77.70;;;;;;5032784;28;20033;-76
2022/04/20 06:02:22;;;;;;;7.85;5.43;;;10.00;77.70;;;;;;5021834;28;20039;-75
2022/04/20 06:04:48;;;;;;;8.30;4.80;;;10.00;77.60;;;;;;5036458;28;20051;-77
2022/04/20 06:10:37;;;;;;;8.68;4.63;;;10.00;78.20;;;;;;5036883;28;20048;-76
2022/04/20 06:13:02;;;;;;;9.02;4.97;;;9.90;78.60;;;;;;5037347;28;20025;-77
2022/04/20 06:15:28;;;;;;;8.55;5.35;;;9.80;79.50;;;;;;5018971;28;20029;-76
2022/04/20 06:17:54;;;;;;;6.70;5.32;;;9.80;79.50;;;;;;5016858;28;20034;-81
2022/04/20 06:20:21;;;;;;;8.00;4.97;;;9.90;79.30;;;;;;5034119;28;20020;-78
2022/04/20 06:22:47;;;;;;;11.20;5.07;;;9.90;79.10;;;;;;5033454;28;20025;-78
2022/04/20 06:25:12;;;;;;;12.85;5.55;;;9.90;79.80;;;;;;5035727;28;20025;-78
2022/04/20 06:27:38;;;;;;;9.77;6.15;;;10.00;79.30;;;;;;5035857;28;20039;-78
2022/04/20 06:30:04;;;;;;;7.63;4.00;;;10.10;79.70;;;;;;5035864;28;20431;-79
2022/04/20 06:32:31;;;;;;;13.40;6.60;;;10.20;79.00;;;;;;5033903;28;20030;-79
2022/04/20 06:34:57;;;;;;;11.82;5.68;;;10.30;79.20;;;;;;5033214;28;20021;-77
2022/04/20 06:37:24;;;;;;;15.68;6.80;;;10.30;78.70;;;;;;5035614;28;20076;-78
2022/04/20 06:39:49;;;;;;;11.82;6.10;;;10.40;78.70;;;;;;5029843;28;20057;-78
2022/04/20 06:42:15;;;;;;;11.23;7.35;;;10.50;79.00;;;;;;5016858;28;20116;-81
2022/04/20 06:44:41;;;;;;;9.68;7.20;;;10.60;78.90;;;;;;5016928;28;20022;-80
2022/04/20 06:47:07;;;;;;;10.18;6.38;;;10.60;78.50;;;;;;5031703;28;20024;-79
2022/04/20 06:49:33;;;;;;;12.80;7.45;;;10.80;78.20;;;;;;5036681;28;20456;-79
2022/04/20 07:01:45;;;;;;;13.07;7.15;;;10.90;78.40;;;;;;5118719;27;20382;-81
2022/04/20 07:04:11;;;;;;;14.40;8.38;;;10.90;78.90;;;;;;5099978;28;20024;-80
2022/04/20 07:06:36;;;;;;;12.68;7.18;;;11.10;78.70;;;;;;5101076;28;20028;-80
2022/04/20 07:09:02;;;;;;;16.42;7.60;;;11.30;78.20;;;;;;5102511;28;20030;-79
2022/04/20 07:11:28;;;;;;;14.93;8.00;;;11.50;77.40;;;;;;5096086;28;20034;-79
2022/04/20 07:13:57;;;;;;;17.58;7.65;;;11.60;77.10;;;;;;5102508;28;20055;-78
2022/04/20 07:16:23;;;;;;;12.35;7.10;;;11.60;77.40;;;;;;5098616;28;20052;-78
2022/04/20 07:18:49;;;;;;;13.15;7.78;;;11.90;76.80;;;;;;5094243;28;20061;-80
2022/04/20 07:21:15;;;;;;;12.65;8.20;;;12.20;75.70;;;;;;5081283;28;20028;-80
2022/04/20 07:23:41;;;;;;;19.73;8.63;;;12.30;75.70;;;;;;5079386;28;20024;-80
2022/04/20 07:26:07;;;;;;;12.82;7.75;;;12.70;74.50;;;;;;5080532;28;20486;-80
2022/04/20 07:28:34;;;;;;;13.35;8.85;;;12.90;73.50;;;;;;5084340;28;20035;-83
2022/04/20 07:31:01;;;;;;;16.48;9.73;;;13.10;72.80;;;;;;5091930;28;20525;-81
2022/04/20 07:33:26;;;;;;;13.65;7.68;;;13.30;72.50;;;;;;5090280;28;20031;-80
2022/04/20 07:35:52;;;;;;;14.60;8.27;;;13.40;71.90;;;;;;5090297;28;20020;-81
2022/04/20 07:38:18;;;;;;;11.63;7.03;;;13.50;72.10;;;;;;5091731;28;20055;-81
2022/04/20 07:40:43;;;;;;;14.95;6.90;;;13.80;70.60;;;;;;5091223;28;20099;-81
2022/04/20 07:43:09;;;;;;;12.55;7.65;;;14.00;70.20;;;;;;5091058;28;20028;-81
2022/04/20 07:45:35;;;;;;;17.02;8.82;;;14.40;69.50;;;;;;5089120;28;20464;-81
2022/04/20 07:48:00;;;;;;;15.95;8.07;;;14.70;68.80;;;;;;5090113;28;20016;-81
2022/04/20 07:50:26;;;;;;;17.02;9.05;;;14.90;67.80;;;;;;5090034;28;20094;-82
2022/04/20 07:52:54;;;;;;;10.07;7.22;;;15.80;65.40;;;;;;5090380;28;20024;-82
2022/04/20 07:55:28;;;;;;;16.38;8.65;;;17.10;60.70;;;;;;5089050;28;20051;-83
2022/04/20 07:57:56;;;;;;;14.15;7.57;;;18.80;55.70;;;;;;5086491;28;20028;-82
2022/04/20 08:00:22;;;;;;;11.40;7.90;;;19.30;52.80;;;;;;5090390;28;20419;-82
2022/04/20 08:02:49;;;;;;;16.38;8.95;;;20.50;49.50;;;;;;5091408;28;20036;-82
2022/04/20 08:05:17;;;;;;;10.85;6.97;;;21.40;47.10;;;;;;5089845;28;20038;-82
2022/04/20 08:07:44;;;;;;;12.05;7.45;;;22.70;45.70;;;;;;5086312;28;20036;-82
2022/04/20 08:10:12;;;;;;;13.40;8.02;;;23.30;43.20;;;;;;5069531;28;20072;-82
2022/04/20 08:12:42;;;;;;;12.02;7.97;;;23.80;42.50;;;;;;5077997;28;20025;-82
2022/04/20 08:15:09;;;;;;;11.88;7.30;;;24.60;41.60;;;;;;5075041;28;20059;-82
2022/04/20 08:17:36;;;;;;;13.27;7.22;;;24.90;40.30;;;;;;5077146;28;20097;-82
2022/04/20 08:20:06;;;;;;;10.65;7.07;;;25.00;39.00;;;;;;5077688;28;20027;-82
2022/04/20 08:22:32;;;;;;;10.25;6.53;;;25.30;38.60;;;;;;5059694;28;20525;-83
2022/04/20 08:24:59;;;;;;;10.68;7.63;;;25.30;38.50;;;;;;5089254;28;20115;-83
2022/04/20 08:27:25;;;;;;;11.30;7.07;;;25.30;38.40;;;;;;5076298;28;20037;-86
2022/04/20 08:29:51;;;;;;;10.55;6.90;;;25.70;37.60;;;;;;5061946;28;20462;-86
2022/04/20 08:32:18;;;;;;;14.30;6.53;;;26.10;37.80;;;;;;5057552;28;20112;-86
2022/04/20 08:34:44;;;;;;;10.48;5.97;;;26.30;36.30;;;;;;5056764;28;20479;-85
2022/04/20 08:37:10;;;;;;;10.82;6.68;;;26.20;35.40;;;;;;5056723;28;20025;-86
2022/04/20 08:39:38;;;;;;;8.95;5.72;;;25.90;35.70;;;;;;5067279;28;20052;-86
2022/04/20 08:42:05;;;;;;;9.57;5.95;;;26.20;35.00;;;;;;5057886;28;20025;-86
2022/04/20 08:44:36;;;;;;;9.63;5.45;;;26.00;34.70;;;;;;5055933;28;20104;-85
2022/04/20 08:47:02;;;;;;;9.70;5.72;;;25.80;35.40;;;;;;5059104;28;20016;-85
2022/04/20 08:49:29;;;;;;;10.48;5.85;;;25.10;35.70;;;;;;5076874;28;20032;-85
2022/04/20 08:54:40;;;;;;;10.07;6.40;;;25.40;36.30;;;;;;5076965;28;20044;-85
2022/04/20 08:57:16;;;;;;;11.77;6.55;;;25.20;35.70;;;;;;5073461;28;20028;-84
2022/04/20 08:59:48;;;;;;;10.77;5.93;;;25.30;36.70;;;;;;5064441;28;20141;-85
2022/04/20 09:02:14;;;;;;;12.68;6.40;;;25.20;36.70;;;;;;5076938;28;20025;-85
2022/04/20 09:04:41;;;;;;;11.18;6.05;;;24.80;37.40;;;;;;5077031;28;20023;-85
2022/04/20 09:07:11;;;;;;;10.07;6.30;;;25.00;37.40;;;;;;5058660;28;20041;-81
2022/04/20 09:09:38;;;;;;;10.52;6.10;;;24.90;37.40;;;;;;5067274;28;20043;-86
2022/04/20 09:12:14;;;;;;;11.20;6.38;;;24.30;37.10;;;;;;5073116;28;20033;-85
2022/04/20 09:14:43;;;;;;;7.70;5.53;;;24.60;37.60;;;;;;5074587;28;20023;-85
2022/04/20 09:17:12;;;;;;;11.33;6.40;;;24.60;37.30;;;;;;5073476;28;20035;-85
2022/04/20 09:19:39;;;;;;;10.05;5.65;;;24.70;37.50;;;;;;5076694;28;20055;-85
2022/04/20 09:22:29;;;;;;;11.02;5.90;;;25.10;36.30;;;;;;5075194;28;20020;-85
2022/04/20 09:25:06;;;;;;;10.25;5.55;;;25.10;36.00;;;;;;5069252;28;20404;-85
2022/04/20 09:27:37;;;;;;;11.63;5.47;;;25.80;35.00;;;;;;5076816;28;20069;-84
2022/04/20 09:30:08;;;;;;;7.10;4.78;;;26.80;34.30;;;;;;5068572;28;20605;-84
2022/04/20 09:32:36;;;;;;;8.63;5.80;;;27.00;33.10;;;;;;5060493;28;20025;-83
2022/04/20 09:35:05;;;;;;;10.80;6.10;;;26.80;32.80;;;;;;5062170;28;20029;-83
2022/04/20 09:37:32;;;;;;;10.43;5.90;;;26.60;33.10;;;;;;5056460;28;20379;-84
2022/04/20 09:39:59;;;;;;;9.65;6.75;;;26.20;33.50;;;;;;5071261;28;20393;-82
2022/04/20 09:42:25;;;;;;;9.88;6.60;;;26.10;33.40;;;;;;5056220;28;20108;-83
2022/04/20 09:44:57;;;;;;;8.75;6.68;;;25.80;32.70;;;;;;5056229;28;20063;-83
2022/04/20 09:50:20;;;;;;;11.13;7.63;;;26.50;32.20;;;;;;5073069;28;20031;-82
2022/04/20 09:52:48;;;;;;;10.55;6.57;;;26.90;32.70;;;;;;5075986;28;20032;-83
2022/04/20 09:55:35;;;;;;;14.88;8.40;;;27.20;31.70;;;;;;5072867;28;20047;-81
2022/04/20 09:58:19;;;;;;;12.75;9.07;;;27.10;31.00;;;;;;5057894;28;20533;-82
2022/04/20 10:00:47;;;;;;;11.88;9.00;;;27.40;31.10;;;;;;5071707;28;20056;-83
2022/04/20 10:03:26;;;;;;;10.98;8.73;;;27.50;29.90;;;;;;5085815;28;20079;-82
2022/04/20 10:05:53;;;;;;;12.23;8.73;;;27.70;31.40;;;;;;5074385;28;20024;-83
2022/04/20 10:08:20;;;;;;;12.68;9.50;;;27.90;30.80;;;;;;5075058;28;20039;-83
2022/04/20 10:10:48;;;;;;;13.55;9.57;;;27.70;31.20;;;;;;5071138;28;20115;-83
2022/04/20 10:13:16;;;;;;;16.77;9.98;;;27.50;29.90;;;;;;5075348;28;20483;-83
2022/04/20 10:18:29;;;;;;;15.50;10.43;;;27.20;30.90;;;;;;5073162;28;20039;-82
2022/04/20 10:20:59;;;;;;;17.75;11.10;;;27.10;31.70;;;;;;5075252;28;20063;-82
2022/04/20 10:23:25;;;;;;;18.38;10.93;;;26.90;31.60;;;;;;5056307;28;20025;-82
2022/04/20 10:25:53;;;;;;;16.88;11.60;;;26.70;31.80;;;;;;5054193;28;20108;-82
2022/04/20 10:28:33;;;;;;;18.33;11.70;;;26.10;32.60;;;;;;5055235;28;20041;-82
2022/04/20 10:31:08;;;;;;;18.33;11.70;;;25.40;33.60;;;;;;5054989;28;20053;-82
2022/04/20 10:33:38;;;;;;;17.95;11.30;;;24.90;34.50;;;;;;5061533;28;20025;-82
2022/04/20 10:36:09;;;;;;;18.83;11.80;;;24.10;36.00;;;;;;5073480;28;20021;-82
2022/04/20 10:38:35;;;;;;;21.38;12.68;;;23.60;36.80;;;;;;5090191;28;20031;-82
2022/04/20 10:41:08;;;;;;;22.08;12.02;;;23.00;37.40;;;;;;5055734;28;20033;-82
2022/04/20 10:43:35;;;;;;;19.02;11.77;;;22.80;38.60;;;;;;5054938;28;20025;-82
2022/04/20 10:46:04;;;;;;;21.65;12.75;;;22.30;38.70;;;;;;5054572;28;20029;-82
2022/04/20 10:48:55;;;;;;;18.40;11.18;;;22.30;39.30;;;;;;5070363;28;20024;-82
2022/04/20 10:51:30;;;;;;;21.98;12.88;;;22.30;40.70;;;;;;5056780;28;20025;-82
2022/04/20 10:54:25;;;;;;;25.38;12.90;;;22.00;39.30;;;;;;5055292;28;20584;-82
2022/04/20 10:57:10;;;;;;;21.40;12.05;;;21.70;40.70;;;;;;5054983;28;20029;-82
2022/04/20 10:59:38;;;;;;;19.73;11.98;;;21.60;39.90;;;;;;5061654;28;20028;-82
2022/04/20 11:02:03;;;;;;;22.05;12.13;;;21.40;40.30;;;;;;5075092;28;20599;-82
2022/04/20 11:04:43;;;;;;;22.90;12.32;;;21.70;40.50;;;;;;5071730;28;20112;-82
2022/04/20 11:07:34;;;;;;;20.27;12.40;;;21.60;41.80;;;;;;5053796;28;20029;-82
2022/04/20 11:10:05;;;;;;;20.58;12.65;;;21.70;42.00;;;;;;5054649;28;20039;-82
2022/04/20 11:18:38;;;;;;;21.35;11.75;;;21.70;43.40;;;;;;5074898;28;20033;-82
2022/04/20 11:21:04;;;;;;;26.17;13.63;;;21.70;42.50;;;;;;5054220;28;20438;-83
2022/04/20 11:23:48;;;;;;;24.63;13.40;;;21.60;43.30;;;;;;5054855;28;20087;-82
2022/04/20 11:26:28;;;;;;;24.00;13.07;;;21.40;43.20;;;;;;5054617;28;20041;-82
2022/04/20 11:28:55;;;;;;;24.90;13.43;;;21.40;43.40;;;;;;5054650;28;20480;-83
2022/04/20 11:31:21;;;;;;;28.05;13.02;;;21.10;42.70;;;;;;5054925;28;20033;-83
2022/04/20 11:33:49;;;;;;;25.92;13.93;;;21.30;42.90;;;;;;5054703;28;20037;-83
2022/04/20 11:36:15;;;;;;;23.48;13.43;;;21.40;43.30;;;;;;5054612;28;20044;-82
2022/04/20 11:38:45;;;;;;;24.05;14.00;;;21.30;43.50;;;;;;5054115;28;20483;-83
2022/04/20 11:41:12;;;;;;;26.17;15.27;;;21.30;43.90;;;;;;5055161;28;20139;-82
2022/04/20 11:43:39;;;;;;;30.23;15.63;;;21.50;43.20;;;;;;5054719;28;20025;-84
2022/04/20 11:46:06;;;;;;;27.00;14.73;;;21.50;44.00;;;;;;5060006;28;20024;-82
2022/04/20 11:48:38;;;;;;;35.90;15.68;;;21.50;44.10;;;;;;5075608;28;20494;-83
2022/04/20 11:51:08;;;;;;;27.67;15.50;;;21.60;44.50;;;;;;5067212;28;20055;-83
2022/04/20 11:53:34;;;;;;;;;;;21.40;43.50;;;;;;5078790;28;20078;-82
2022/04/20 11:56:01;;;;;;;28.08;15.85;;;21.40;44.50;;;;;;5059307;28;19913;-82
2022/04/20 11:58:27;;;;;;;25.35;14.07;;;21.20;43.90;;;;;;5058154;28;20013;-83
2022/04/20 12:01:06;;;;;;;29.42;15.88;;;21.20;44.30;;;;;;5076863;28;20112;-83
2022/04/20 12:03:40;;;;;;;32.78;17.63;;;21.30;44.40;;;;;;5078266;28;20051;-83
2022/04/20 12:06:07;;;;;;;27.95;15.85;;;21.20;45.00;;;;;;5072922;28;20041;-82
2022/04/20 12:08:36;;;;;;;30.63;15.68;;;21.30;45.00;;;;;;5060936;28;20036;-82
2022/04/20 12:11:06;;;;;;;29.20;16.30;;;21.50;44.60;;;;;;5073252;28;20395;-82
2022/04/20 12:13:32;;;;;;;32.08;17.65;;;21.50;45.30;;;;;;5075955;28;20017;-83
2022/04/20 12:16:03;;;;;;;33.15;17.08;;;21.40;44.90;;;;;;5069654;28;20510;-82
2022/04/20 12:18:33;;;;;;;27.02;15.65;;;21.30;45.00;;;;;;5057973;28;20017;-82
2022/04/20 12:20:59;;;;;;;29.65;16.92;;;21.40;45.30;;;;;;5057635;28;20032;-82
2022/04/20 12:23:34;;;;;;;29.10;15.10;;;21.30;44.80;;;;;;5057668;28;20033;-82
2022/04/20 12:26:05;;;;;;;28.85;17.17;;;21.60;45.60;;;;;;5059930;28;20037;-82
2022/04/20 12:28:41;;;;;;;34.97;16.27;;;21.60;44.30;;;;;;5072947;28;20039;-81
2022/04/20 12:31:10;;;;;;;28.33;17.67;;;21.70;44.50;;;;;;5073392;28;20495;-82
2022/04/20 12:33:39;;;;;;;28.52;15.90;;;21.60;45.00;;;;;;5074126;28;20546;-82
2022/04/20 12:36:08;;;;;;;27.38;14.70;;;21.50;46.00;;;;;;5075654;28;20062;-83
2022/04/20 12:38:53;;;;;;;22.73;14.77;;;21.50;44.90;;;;;;5089181;28;20040;-83
2022/04/20 12:41:43;;;;;;;26.58;15.90;;;21.30;45.00;;;;;;5078058;28;20028;-82
2022/04/20 12:44:37;;;;;;;25.50;15.73;;;21.40;44.80;;;;;;5076356;28;20031;-83
2022/04/20 12:47:10;;;;;;;25.90;15.32;;;21.50;44.10;;;;;;5077827;28;20099;-83
2022/04/20 12:49:36;;;;;;;28.02;15.43;;;21.60;44.60;;;;;;5075031;28;20395;-83
2022/04/20 12:52:16;;;;;;;27.90;16.48;;;21.70;44.20;;;;;;5081171;28;20024;-82
2022/04/20 12:55:05;;;;;;;28.00;14.80;;;21.50;45.30;;;;;;5073947;28;20025;-82
2022/04/20 13:03:07;;;;;;;27.25;15.15;;;21.30;44.20;;;;;;5078071;28;20066;-86
2022/04/20 13:05:38;;;;;;;26.98;14.95;;;21.50;44.70;;;;;;5080703;28;20024;-86
2022/04/20 13:08:05;;;;;;;28.13;16.05;;;21.60;44.30;;;;;;5084561;28;20029;-85
2022/04/20 13:10:34;;;;;;;27.10;16.70;;;21.50;44.60;;;;;;5081413;28;20024;-84
2022/04/20 13:13:00;;;;;;;31.70;16.30;;;21.30;44.10;;;;;;5084233;28;20993;-85
2022/04/20 13:15:29;;;;;;;29.98;16.17;;;21.60;43.90;;;;;;5085545;28;20044;-84
2022/04/20 13:17:57;;;;;;;26.52;16.38;;;21.40;44.30;;;;;;5081474;28;20108;-86
2022/04/20 13:20:24;;;;;;;28.30;16.75;;;21.60;44.60;;;;;;5072636;28;20111;-88
2022/04/20 13:22:50;;;;;;;26.85;14.77;;;21.90;44.00;;;;;;5076572;28;20024;-87
2022/04/20 13:28:00;;;;;;;25.90;16.20;;;22.20;43.70;;;;;;5059629;28;20055;-88
2022/04/20 13:30:39;;;;;;;23.02;14.90;;;22.20;43.30;;;;;;5063155;28;20033;-84
2022/04/20 13:33:13;;;;;;;25.85;15.90;;;21.80;42.20;;;;;;5077741;28;20021;-85
2022/04/20 13:35:40;;;;;;;26.92;15.63;;;21.70;42.30;;;;;;5075552;28;20028;-85
2022/04/20 13:38:06;;;;;;;26.38;15.38;;;21.90;42.40;;;;;;5067894;28;20380;-85